Ksl Seville — VRNZ7 — position and weather

sailwx.info

Track history (hours):
 
Tides and Currents Weather Stations Pressure Air Temp Water Temp Dewpoint Dewpoint Depression Visibility Wind Speed Wind Dir Waves Ship Positions

Ksl Seville

Last reported at 2017-Aug-31 07:15 UTC. Time now 2017-Sep-25 08:21 UTC.
Position N 50°60' W 057°45'.
Warning: this ship's position is 25 days out of date.

Length 292 m; draft 11.5 m.

Type: Cargo ship. MMSI: 477289700.

Date/timePositionNaut miles runAvg speedWind from/ knotsBaromVisibWave heightAir tempDewpointWater temp
2017-Aug-31 07:15N 50°60' W 057°45'2 9.4
2017-Aug-31 06:59N 51°02' W 057°42'5 9.3
2017-Aug-31 06:30N 51°05' W 057°36'5 9.2
2017-Aug-31 06:00N 51°08' W 057°31'17 9.0
2017-Aug-31 04:08N 51°17' W 057°09'4 9.7
2017-Aug-31 03:47N 51°19' W 057°04'310.0
2017-Aug-31 03:29N 51°21' W 057°01'5 9.6
2017-Aug-31 02:58N 51°24' W 056°54'4 9.2
2017-Aug-31 02:29N 51°26' W 056°48'17 9.5
2017-Aug-31 00:39N 51°36' W 056°25'1 8.9
2017-Aug-31 00:30N 51°37' W 056°23'6 9.1
2017-Aug-30 23:48N 51°40' W 056°15'3 9.3
2017-Aug-30 23:30N 51°42' W 056°11'10 9.3
2017-Aug-30 22:29N 51°47' W 055°58'  
2017-Aug-21 17:54N 43°54' W 005°56'613.1
2017-Aug-21 17:25N 43°51' W 005°49'612.9
2017-Aug-21 16:57N 43°46' W 005°44'511.5
2017-Aug-21 16:30N 43°41' W 005°41'510.6
2017-Aug-21 16:00N 43°36' W 005°38'3 0.8
2017-Aug-21 12:29N 43°34' W 005°41'0 0.0
2017-Aug-21 11:53N 43°34' W 005°41'0 0.0
2017-Aug-21 11:17N 43°34' W 005°41'0 0.0
2017-Aug-21 10:59N 43°34' W 005°41'0 0.0
2017-Aug-21 10:17N 43°34' W 005°41'0 0.0
2017-Aug-21 09:53N 43°34' W 005°41'0 0.0
2017-Aug-21 09:29N 43°34' W 005°41'0 0.0
2017-Aug-21 08:47N 43°34' W 005°41'0 0.0
2017-Aug-21 08:23N 43°34' W 005°41'0 0.0
2017-Aug-21 07:59N 43°34' W 005°41'0 0.0
2017-Aug-21 07:29N 43°34' W 005°41'  
Track history (hours):
 
Tides and Currents Weather Stations Pressure Air Temp Water Temp Dewpoint Dewpoint Depression Visibility Wind Speed Wind Dir Waves Ship Positions

Ksl Seville

Last reported at 2017-Aug-31 07:15 UTC. Time now 2017-Sep-25 08:21 UTC.
Position N 50°60' W 057°45'.
Warning: this ship's position is 25 days out of date.

Length 292 m; draft 11.5 m.

Type: Cargo ship. MMSI: 477289700.

Date/timePositionNaut miles runAvg speedWind from/ knotsBaromVisibWave heightAir tempDewpointWater temp
2017-Aug-31 07:15N 50°60' W 057°45'2 9.4
2017-Aug-31 06:59N 51°02' W 057°42'5 9.3
2017-Aug-31 06:30N 51°05' W 057°36'5 9.2
2017-Aug-31 06:00N 51°08' W 057°31'17 9.0
2017-Aug-31 04:08N 51°17' W 057°09'4 9.7
2017-Aug-31 03:47N 51°19' W 057°04'310.0
2017-Aug-31 03:29N 51°21' W 057°01'5 9.6
2017-Aug-31 02:58N 51°24' W 056°54'4 9.2
2017-Aug-31 02:29N 51°26' W 056°48'17 9.5
2017-Aug-31 00:39N 51°36' W 056°25'1 8.9
2017-Aug-31 00:30N 51°37' W 056°23'6 9.1
2017-Aug-30 23:48N 51°40' W 056°15'3 9.3
2017-Aug-30 23:30N 51°42' W 056°11'10 9.3
2017-Aug-30 22:29N 51°47' W 055°58'  
2017-Aug-21 17:54N 43°54' W 005°56'613.1
2017-Aug-21 17:25N 43°51' W 005°49'612.9
2017-Aug-21 16:57N 43°46' W 005°44'511.5
2017-Aug-21 16:30N 43°41' W 005°41'510.6
2017-Aug-21 16:00N 43°36' W 005°38'3 0.8
2017-Aug-21 12:29N 43°34' W 005°41'0 0.0
2017-Aug-21 11:53N 43°34' W 005°41'0 0.0
2017-Aug-21 11:17N 43°34' W 005°41'0 0.0
2017-Aug-21 10:59N 43°34' W 005°41'0 0.0
2017-Aug-21 10:17N 43°34' W 005°41'0 0.0
2017-Aug-21 09:53N 43°34' W 005°41'0 0.0
2017-Aug-21 09:29N 43°34' W 005°41'0 0.0
2017-Aug-21 08:47N 43°34' W 005°41'0 0.0
2017-Aug-21 08:23N 43°34' W 005°41'0 0.0
2017-Aug-21 07:59N 43°34' W 005°41'0 0.0
2017-Aug-21 07:29N 43°34' W 005°41'  

Dump ship's entire track history